Главная страница
METAR-TAF:

METAR-TAF

Аэропорты :

Бриджпорт, Коннектикут, США

широта: 41-09-30N, долгота: 073-07-44W, высота над уровнем моря: 3 м

Текущие метеонаблюдения

Эта сводка был подготовлена 41 минут назад, в 00:52 UTC
Ветер 12 Узел от северно-северо-западный с порывами до 19 Узел
Температура -2°C
Влажность 46%
Давление 1018 hPa
Видимость: 16.1 км
ясное небо

METAR: KBDR 130052Z 33012G19KT 10SM CLR M02/M12 A3007 RMK AO2 SLP182 T10171122

Время: 20:33 (01:33 UTC)

Прогноз

Эта сводка был подготовлена 1 час и 53 минут назад, в 23:40 UTC
Прогноз действительный с 13-го 00 UTC до 13-го 24 UTC
Ветер 15 Узел от северо-западный с порывами до 29 Узел
Видимость: 10 км
Отдельные облака на высоте 7000 фута
С 13-го 1200 UTC
Ветер 12 Узел от северо-западный с порывами до 24 Узел
Видимость: 10 км
ясное небо
С 13-го 2000 UTC
Ветер 11 Узел от северо-западный
Видимость: 10 км
ясное небо

TAF: KBDR 122340Z 1300/1324 32015G29KT P6SM SCT070 FM131200 32012G24KT P6SM SKC FM132000 32011KT P6SM SKC

Метеонаблюдения и прогнозы для более 4000 аэропортов (сводки METAR и TAF).

Имеющиеся станции представлены на карте желтыми и красными точками.

Чтобы увидеть название станции, наведите на нее мышь.

Затем щелкните, чтобы увидеть метеонаблюдения и метеопрогнозы.

Управление картой: чтобы увеличить масштаб, щелкните зеленые кнопки с черным крестиком; чтобы уменьшить масштаб, щелкните зеленую кнопку с тире; для просмотра соседних карт щелкайте зеленые стрелки.


METAR-TAF: